Mount Vernon, Virginia
Current Conditions -  °F | °C
As of 11:33 AM on Wednesday 26 Nov 2014 (Local Time) from KDAA Reporting Station
Light Snow Light Snow  
Wind Chill: 34°   Ceiling: 900
Heat Index: 34°   Visibility: 3mi
Dew Point: 32°   Wind: 3mph
Humidity: 93%   Direction: NA
Pressure: 30.01"   Gusts: NA
Location:  38.71°N, 77.08°W
Report Text: KDAA 261633Z AUTO VRB03KT 3SM -SN BR SCT006 OVC009 01/00 A3001 RMK AO2 SNB1603RAE1603 CIG 007V011
Loading
Personal Weather Stations






























Interactive Weather Map New forecast layout! Learn more

10-Day Weather Forecast

Advertisements
Track Severe Weather on mobile